Time,TemperatureF,DewpointF,PressureIn,WindDirection,WindDirectionDegrees,WindSpeedMPH,WindSpeedGustMPH,Humidity,HourlyPrecipIn,Conditions,Clouds,dailyrainin,SolarRadiationWatts/m^2,SoftwareType,DateUTC
2013-02-05 00:11:00,15.7,0.0,29.84,WSW,253,10.0,18.0,50,0.00,,,0.00,0,weatherlink.com 1.10,2013-02-05 05:11:00,
2013-02-05 00:26:00,15.7,0.0,29.84,WSW,245,10.0,18.0,51,0.00,,,0.00,0,weatherlink.com 1.10,2013-02-05 05:26:00,
2013-02-05 00:41:00,15.6,0.0,29.84,West,260,9.0,13.0,51,0.00,,,0.00,0,weatherlink.com 1.10,2013-02-05 05:41:00,
2013-02-05 00:56:00,15.4,0.0,29.84,WSW,244,9.0,12.0,51,0.00,,,0.00,0,weatherlink.com 1.10,2013-02-05 05:56:00,
2013-02-05 01:11:00,15.1,0.0,29.85,West,261,9.0,12.0,52,0.00,,,0.00,0,weatherlink.com 1.10,2013-02-05 06:11:00,
2013-02-05 01:26:00,14.9,1.0,29.85,SW,214,1.0,11.0,53,0.00,,,0.00,0,weatherlink.com 1.10,2013-02-05 06:26:00,
2013-02-05 01:41:00,14.8,1.0,29.86,SW,229,6.0,11.0,54,0.00,,,0.00,0,weatherlink.com 1.10,2013-02-05 06:41:00,
2013-02-05 01:56:00,14.6,1.0,29.86,WSW,257,6.0,10.0,54,0.00,,,0.00,0,weatherlink.com 1.10,2013-02-05 06:56:00,
2013-02-05 02:12:00,14.4,1.0,29.86,West,268,2.0,8.0,55,0.00,,,0.00,0,weatherlink.com 1.10,2013-02-05 07:12:00,
2013-02-05 02:26:00,14.0,1.0,29.87,West,267,1.0,5.0,56,0.00,,,0.00,0,weatherlink.com 1.10,2013-02-05 07:26:00,
2013-02-05 02:42:00,13.6,1.0,29.87,West,267,1.0,3.0,57,0.00,,,0.00,0,weatherlink.com 1.10,2013-02-05 07:42:00,
2013-02-05 02:57:00,13.3,1.0,29.87,West,267,0.0,4.0,58,0.00,,,0.00,0,weatherlink.com 1.10,2013-02-05 07:57:00,
2013-02-05 03:12:00,12.9,1.0,29.86,West,267,4.0,7.0,59,0.00,,,0.00,0,weatherlink.com 1.10,2013-02-05 08:12:00,
2013-02-05 03:27:00,12.9,1.0,29.87,WSW,245,5.0,9.0,60,0.00,,,0.00,0,weatherlink.com 1.10,2013-02-05 08:27:00,
2013-02-05 03:42:00,12.8,1.0,29.87,SW,236,6.0,9.0,60,0.00,,,0.00,0,weatherlink.com 1.10,2013-02-05 08:42:00,
2013-02-05 03:57:00,12.6,1.0,29.88,SW,233,1.0,7.0,61,0.00,,,0.00,0,weatherlink.com 1.10,2013-02-05 08:57:00,
2013-02-05 04:12:00,12.8,2.0,29.88,SW,232,1.0,7.0,61,0.00,,,0.00,0,weatherlink.com 1.10,2013-02-05 09:12:00,
2013-02-05 04:28:00,13.1,2.0,29.88,SW,233,2.0,7.0,60,0.00,,,0.00,0,weatherlink.com 1.10,2013-02-05 09:28:00,
2013-02-05 04:42:00,12.9,2.0,29.88,SW,233,1.0,6.0,61,0.00,,,0.00,0,weatherlink.com 1.10,2013-02-05 09:42:00,
2013-02-05 05:12:00,12.8,2.0,29.89,WSW,237,5.0,8.0,62,0.00,,,0.00,0,weatherlink.com 1.10,2013-02-05 10:12:00,
2013-02-05 05:27:00,12.6,2.0,29.89,SW,236,4.0,5.0,62,0.00,,,0.00,0,weatherlink.com 1.10,2013-02-05 10:27:00,
2013-02-05 05:42:00,12.6,2.0,29.89,WSW,237,1.0,7.0,62,0.00,,,0.00,0,weatherlink.com 1.10,2013-02-05 10:42:00,
2013-02-05 05:57:00,12.8,2.0,29.89,WSW,237,2.0,4.0,63,0.00,,,0.00,0,weatherlink.com 1.10,2013-02-05 10:57:00,
2013-02-05 06:12:00,12.8,2.0,29.89,WSW,244,2.0,7.0,63,0.00,,,0.00,0,weatherlink.com 1.10,2013-02-05 11:12:00,
2013-02-05 06:27:00,12.9,2.0,29.90,West,268,4.0,8.0,63,0.00,,,0.00,0,weatherlink.com 1.10,2013-02-05 11:27:00,
2013-02-05 06:42:00,12.9,2.0,29.91,WSW,246,2.0,8.0,63,0.00,,,0.00,0,weatherlink.com 1.10,2013-02-05 11:42:00,
2013-02-05 06:57:00,12.9,3.0,29.91,WSW,245,1.0,6.0,64,0.00,,,0.00,5,weatherlink.com 1.10,2013-02-05 11:57:00,
2013-02-05 07:12:00,12.8,3.0,29.91,WSW,246,1.0,7.0,64,0.00,,,0.00,9,weatherlink.com 1.10,2013-02-05 12:12:00,
2013-02-05 07:27:00,12.6,3.0,29.92,WSW,246,2.0,5.0,64,0.00,,,0.00,14,weatherlink.com 1.10,2013-02-05 12:27:00,
2013-02-05 07:42:00,12.3,3.0,29.93,WSW,246,0.0,0.0,65,0.00,,,0.00,47,weatherlink.com 1.10,2013-02-05 12:42:00,
2013-02-05 07:57:00,12.4,3.0,29.94,WSW,246,2.0,5.0,66,0.00,,,0.00,60,weatherlink.com 1.10,2013-02-05 12:57:00,
2013-02-05 08:12:00,12.9,3.0,29.95,WSW,244,5.0,5.0,66,0.00,,,0.00,84,weatherlink.com 1.10,2013-02-05 13:12:00,
2013-02-05 08:27:00,14.0,4.0,29.96,WSW,244,0.0,3.0,65,0.00,,,0.00,109,weatherlink.com 1.10,2013-02-05 13:27:00,
2013-02-05 08:42:00,14.6,4.0,29.96,WSW,244,0.0,5.0,63,0.00,,,0.00,72,weatherlink.com 1.10,2013-02-05 13:42:00,
2013-02-05 08:57:00,14.8,4.0,29.96,WSW,244,0.0,0.0,63,0.00,,,0.00,125,weatherlink.com 1.10,2013-02-05 13:57:00,
2013-02-05 09:12:00,16.1,5.0,29.96,WSW,244,0.0,3.0,63,0.00,,,0.00,353,weatherlink.com 1.10,2013-02-05 14:12:00,
2013-02-05 09:27:00,17.8,5.0,29.95,WSW,244,2.0,6.0,58,0.00,,,0.00,408,weatherlink.com 1.10,2013-02-05 14:27:00,
2013-02-05 09:42:00,18.6,5.0,29.95,West,276,6.0,6.0,55,0.00,,,0.00,371,weatherlink.com 1.10,2013-02-05 14:42:00,
2013-02-05 09:58:00,20.3,4.0,29.95,NW,311,0.0,7.0,49,0.00,,,0.00,276,weatherlink.com 1.10,2013-02-05 14:58:00,
2013-02-05 10:12:00,21.0,2.0,29.95,NW,309,2.0,13.0,44,0.00,,,0.00,216,weatherlink.com 1.10,2013-02-05 15:12:00,
2013-02-05 10:27:00,21.8,2.0,29.95,WNW,288,5.0,13.0,43,0.00,,,0.00,315,weatherlink.com 1.10,2013-02-05 15:27:00,
2013-02-05 10:42:00,22.2,2.0,29.95,NNW,329,4.0,13.0,42,0.00,,,0.00,265,weatherlink.com 1.10,2013-02-05 15:42:00,
2013-02-05 10:57:00,22.5,2.0,29.95,NW,315,5.0,12.0,42,0.00,,,0.00,348,weatherlink.com 1.10,2013-02-05 15:57:00,
2013-02-05 11:13:00,23.2,3.0,29.95,NW,317,5.0,10.0,41,0.00,,,0.00,308,weatherlink.com 1.10,2013-02-05 16:13:00,
2013-02-05 11:28:00,23.5,3.0,29.94,West,278,5.0,9.0,42,0.00,,,0.00,323,weatherlink.com 1.10,2013-02-05 16:28:00,
2013-02-05 11:43:00,23.9,3.0,29.93,North,-999,0.0,7.0,40,0.00,,,0.00,316,weatherlink.com 1.10,2013-02-05 16:43:00,
2013-02-05 11:58:00,23.8,3.0,29.93,North,355,0.0,2.0,40,0.00,,,0.00,339,weatherlink.com 1.10,2013-02-05 16:58:00,
2013-02-05 12:13:00,25.1,3.0,29.93,WSW,241,6.0,7.0,39,0.00,,,0.00,274,weatherlink.com 1.10,2013-02-05 17:13:00,
2013-02-05 12:28:00,24.2,2.0,29.93,WSW,257,0.0,7.0,39,0.00,,,0.00,232,weatherlink.com 1.10,2013-02-05 17:28:00,
2013-02-05 12:43:00,24.8,2.0,29.92,SSE,160,0.0,6.0,38,0.00,,,0.00,332,weatherlink.com 1.10,2013-02-05 17:43:00,
2013-02-05 12:58:00,25.3,2.0,29.91,SSE,150,0.0,7.0,37,0.00,,,0.00,288,weatherlink.com 1.10,2013-02-05 17:58:00,
2013-02-05 13:13:00,25.6,3.0,29.91,West,281,1.0,8.0,37,0.00,,,0.00,373,weatherlink.com 1.10,2013-02-05 18:13:00,
2013-02-05 13:28:00,25.8,2.0,29.90,WNW,287,2.0,6.0,36,0.00,,,0.00,322,weatherlink.com 1.10,2013-02-05 18:28:00,
2013-02-05 13:43:00,26.0,3.0,29.90,WNW,288,2.0,6.0,37,0.00,,,0.00,373,weatherlink.com 1.10,2013-02-05 18:43:00,
2013-02-05 13:58:00,26.7,4.0,29.90,NNW,329,0.0,4.0,37,0.00,,,0.00,339,weatherlink.com 1.10,2013-02-05 18:58:00,
2013-02-05 14:29:00,28.2,4.0,29.90,South,169,6.0,8.0,35,0.00,,,0.00,381,weatherlink.com 1.10,2013-02-05 19:29:00,
2013-02-05 14:43:00,28.8,4.0,29.90,NNW,340,4.0,7.0,34,0.00,,,0.00,339,weatherlink.com 1.10,2013-02-05 19:43:00,
2013-02-05 14:58:00,28.7,4.0,29.89,NNW,340,0.0,4.0,35,0.00,,,0.00,330,weatherlink.com 1.10,2013-02-05 19:58:00,
2013-02-05 15:13:00,29.0,4.0,29.88,ESE,115,0.0,9.0,34,0.00,,,0.00,304,weatherlink.com 1.10,2013-02-05 20:13:00,
2013-02-05 15:28:00,28.8,4.0,29.88,ENE,65,5.0,8.0,34,0.00,,,0.00,267,weatherlink.com 1.10,2013-02-05 20:28:00,
2013-02-05 15:43:00,28.2,5.0,29.88,ESE,107,7.0,10.0,37,0.00,,,0.00,172,weatherlink.com 1.10,2013-02-05 20:43:00,
2013-02-05 15:58:00,27.5,5.0,29.88,SE,130,6.0,11.0,38,0.00,,,0.00,135,weatherlink.com 1.10,2013-02-05 20:58:00,
2013-02-05 16:13:00,27.0,6.0,29.88,ESE,106,5.0,8.0,40,0.00,,,0.00,51,weatherlink.com 1.10,2013-02-05 21:13:00,
2013-02-05 16:43:00,26.0,6.0,29.88,SE,128,4.0,8.0,43,0.00,,,0.00,21,weatherlink.com 1.10,2013-02-05 21:43:00,
2013-02-05 16:58:00,25.3,7.0,29.88,ENE,59,0.0,5.0,45,0.00,,,0.00,5,weatherlink.com 1.10,2013-02-05 21:58:00,
2013-02-05 17:13:00,25.0,7.0,29.88,East,93,0.0,8.0,47,0.00,,,0.00,0,weatherlink.com 1.10,2013-02-05 22:13:00,
2013-02-05 17:28:00,24.5,7.0,29.88,ESE,113,0.0,7.0,48,0.00,,,0.00,0,weatherlink.com 1.10,2013-02-05 22:28:00,
2013-02-05 17:43:00,24.4,8.0,29.88,ESE,117,0.0,7.0,49,0.00,,,0.00,0,weatherlink.com 1.10,2013-02-05 22:43:00,
2013-02-05 17:58:00,24.1,8.0,29.88,ESE,122,0.0,6.0,50,0.00,,,0.00,0,weatherlink.com 1.10,2013-02-05 22:58:00,
2013-02-05 18:13:00,23.8,8.0,29.88,SE,124,1.0,9.0,50,0.00,,,0.00,0,weatherlink.com 1.10,2013-02-05 23:13:00,
2013-02-05 18:28:00,23.6,8.0,29.88,SE,128,4.0,8.0,51,0.00,,,0.00,0,weatherlink.com 1.10,2013-02-05 23:28:00,
2013-02-05 18:43:00,23.5,8.0,29.89,SE,132,6.0,10.0,51,0.00,,,0.00,0,weatherlink.com 1.10,2013-02-05 23:43:00,
2013-02-05 18:59:00,23.3,8.0,29.88,SE,128,2.0,11.0,51,0.00,,,0.00,0,weatherlink.com 1.10,2013-02-05 23:59:00,
2013-02-05 19:13:00,23.2,8.0,29.89,SE,133,7.0,12.0,52,0.00,,,0.00,0,weatherlink.com 1.10,2013-02-06 00:13:00,
2013-02-05 19:28:00,22.9,8.0,29.88,SE,131,6.0,12.0,53,0.00,,,0.00,0,weatherlink.com 1.10,2013-02-06 00:28:00,
2013-02-05 19:43:00,22.5,8.0,29.89,ESE,120,7.0,11.0,54,0.00,,,0.00,0,weatherlink.com 1.10,2013-02-06 00:43:00,
2013-02-05 19:59:00,22.4,8.0,29.89,SE,136,1.0,11.0,55,0.00,,,0.00,0,weatherlink.com 1.10,2013-02-06 00:59:00,
2013-02-05 20:13:00,22.2,9.0,29.90,SE,134,2.0,11.0,56,0.00,,,0.00,0,weatherlink.com 1.10,2013-02-06 01:13:00,
2013-02-05 20:28:00,21.9,9.0,29.90,SE,144,5.0,8.0,57,0.00,,,0.00,0,weatherlink.com 1.10,2013-02-06 01:28:00,
2013-02-05 20:43:00,21.6,9.0,29.90,SE,132,4.0,8.0,58,0.00,,,0.00,0,weatherlink.com 1.10,2013-02-06 01:43:00,
2013-02-05 20:58:00,21.6,9.0,29.90,SE,135,5.0,8.0,59,0.00,,,0.00,0,weatherlink.com 1.10,2013-02-06 01:58:00,
2013-02-05 21:13:00,21.8,10.0,29.90,SE,136,2.0,8.0,60,0.00,,,0.00,0,weatherlink.com 1.10,2013-02-06 02:13:00,
2013-02-05 21:29:00,21.8,10.0,29.90,SE,136,0.0,7.0,60,0.00,,,0.00,0,weatherlink.com 1.10,2013-02-06 02:29:00,
2013-02-05 21:43:00,21.9,10.0,29.90,SE,136,0.0,0.0,61,0.00,,,0.00,0,weatherlink.com 1.10,2013-02-06 02:43:00,
2013-02-05 21:58:00,21.9,11.0,29.89,SE,136,0.0,0.0,62,0.00,,,0.00,0,weatherlink.com 1.10,2013-02-06 02:58:00,
2013-02-05 22:14:00,22.1,11.0,29.89,SE,136,0.0,4.0,63,0.00,,,0.00,0,weatherlink.com 1.10,2013-02-06 03:14:00,
2013-02-05 22:28:00,22.1,11.0,29.88,SE,136,0.0,3.0,63,0.00,,,0.00,0,weatherlink.com 1.10,2013-02-06 03:28:00,
2013-02-05 22:44:00,22.1,12.0,29.88,SE,136,4.0,7.0,64,0.00,,,0.00,0,weatherlink.com 1.10,2013-02-06 03:44:00,
2013-02-05 22:58:00,22.1,12.0,29.88,East,101,1.0,7.0,64,0.00,,,0.00,0,weatherlink.com 1.10,2013-02-06 03:58:00,
2013-02-05 23:14:00,21.9,11.0,29.88,ESE,117,5.0,8.0,64,0.00,,,0.00,0,weatherlink.com 1.10,2013-02-06 04:14:00,
2013-02-05 23:28:00,21.9,12.0,29.89,ESE,121,4.0,7.0,65,0.00,,,0.00,0,weatherlink.com 1.10,2013-02-06 04:28:00,
2013-02-05 23:43:00,21.9,12.0,29.89,ESE,122,0.0,6.0,65,0.00,,,0.00,0,weatherlink.com 1.10,2013-02-06 04:43:00,
2013-02-05 23:59:00,21.9,12.0,29.89,ESE,122,0.0,0.0,65,0.00,,,0.00,0,weatherlink.com 1.10,2013-02-06 04:59:00,